createdAt,value
2023-04-26T00:02:18.632Z,2.38
2023-04-26T00:04:47.367Z,2.10
2023-04-26T00:07:15.894Z,2.38
2023-04-26T00:09:44.429Z,2.10
2023-04-26T00:12:12.002Z,2.00
2023-04-26T00:14:38.779Z,2.10
2023-04-26T00:17:05.466Z,2.20
2023-04-26T00:19:32.268Z,2.20
2023-04-26T00:21:59.009Z,2.53
2023-04-26T00:24:25.929Z,2.25
2023-04-26T00:26:56.043Z,2.45
2023-04-26T00:29:22.693Z,2.90
2023-04-26T00:31:49.563Z,2.55
2023-04-26T00:34:16.624Z,2.22
2023-04-26T00:36:43.307Z,1.70
2023-04-26T00:39:10.426Z,2.25
2023-04-26T00:41:37.298Z,2.40
2023-04-26T00:44:04.116Z,2.22
2023-04-26T00:46:31.253Z,2.00
2023-04-26T00:48:57.927Z,2.67
2023-04-26T00:51:24.801Z,2.10
2023-04-26T00:53:51.443Z,2.45
2023-04-26T00:56:19.083Z,2.33
2023-04-26T00:58:46.317Z,2.70
2023-04-26T01:01:13.555Z,2.05
2023-04-26T01:03:40.447Z,2.30
2023-04-26T01:06:07.429Z,2.60
2023-04-26T01:08:34.318Z,2.60
2023-04-26T01:11:01.163Z,3.55
2023-04-26T01:13:28.447Z,3.08
2023-04-26T01:15:56.388Z,3.60
2023-04-26T01:18:23.060Z,2.63
2023-04-26T01:20:49.687Z,3.78
2023-04-26T01:23:17.096Z,3.15
2023-04-26T01:25:43.745Z,3.00
2023-04-26T01:28:10.454Z,2.70
2023-04-26T01:30:37.069Z,2.72
2023-04-26T01:33:03.928Z,3.80
2023-04-26T01:35:30.589Z,2.97
2023-04-26T01:37:57.168Z,2.72
2023-04-26T01:40:23.826Z,3.05
2023-04-26T01:42:50.463Z,3.30
2023-04-26T01:45:17.600Z,3.35
2023-04-26T01:47:44.236Z,3.58
2023-04-26T01:50:11.494Z,2.47
2023-04-26T01:52:38.073Z,2.90
2023-04-26T01:55:05.153Z,3.00
2023-04-26T01:57:31.895Z,3.25
2023-04-26T01:59:59.454Z,3.33
2023-04-26T02:02:26.426Z,3.00
2023-04-26T02:04:53.193Z,3.05
2023-04-26T02:07:20.177Z,3.20
2023-04-26T02:09:46.799Z,2.38
2023-04-26T02:12:13.481Z,2.97
2023-04-26T02:14:40.166Z,2.85
2023-04-26T02:17:06.904Z,3.40
2023-04-26T02:19:33.544Z,2.63
2023-04-26T02:22:00.400Z,2.85
2023-04-26T02:24:27.050Z,3.03
2023-04-26T02:26:54.690Z,2.58
2023-04-26T02:29:32.641Z,2.40
2023-04-26T02:32:07.707Z,3.33
2023-04-26T02:34:34.598Z,3.40
2023-04-26T02:37:01.816Z,2.53
2023-04-26T02:39:28.428Z,3.47
2023-04-26T02:41:55.163Z,3.20
2023-04-26T02:44:21.756Z,3.67
2023-04-26T02:46:48.430Z,3.35
2023-04-26T02:49:15.014Z,3.05
2023-04-26T02:51:41.667Z,3.60
2023-04-26T02:54:08.386Z,4.20
2023-04-26T02:56:35.072Z,3.60
2023-04-26T02:59:01.775Z,3.03
2023-04-26T03:01:28.520Z,4.13
2023-04-26T03:03:55.186Z,4.00
2023-04-26T03:06:21.816Z,3.47
2023-04-26T03:08:48.436Z,4.60
2023-04-26T03:11:15.194Z,3.88
2023-04-26T03:13:41.935Z,4.28
2023-04-26T03:16:08.563Z,4.82
2023-04-26T03:18:35.919Z,4.05
2023-04-26T03:21:02.582Z,4.53
2023-04-26T03:23:29.438Z,4.28
2023-04-26T03:25:56.117Z,4.05
2023-04-26T03:28:22.746Z,3.90
2023-04-26T03:30:51.923Z,4.57
2023-04-26T03:33:18.564Z,3.63
2023-04-26T03:35:45.319Z,3.63
2023-04-26T03:38:11.948Z,4.13
2023-04-26T03:40:38.610Z,5.10
2023-04-26T03:43:05.398Z,3.85
2023-04-26T03:45:31.996Z,4.63
2023-04-26T03:47:58.680Z,4.90
2023-04-26T03:50:25.510Z,5.68
2023-04-26T03:52:52.186Z,6.85
2023-04-26T03:55:18.843Z,7.38
2023-04-26T03:57:45.598Z,7.18
2023-04-26T04:00:14.339Z,7.20
2023-04-26T04:02:42.084Z,5.35
2023-04-26T04:05:09.536Z,5.13
2023-04-26T04:07:36.311Z,5.38
2023-04-26T04:10:03.061Z,6.93
2023-04-26T04:12:29.677Z,6.97
2023-04-26T04:14:56.365Z,5.70
2023-04-26T04:17:23.007Z,5.28
2023-04-26T04:19:49.654Z,5.05
2023-04-26T04:22:16.243Z,5.28
2023-04-26T04:24:44.264Z,6.43
2023-04-26T04:27:11.667Z,8.30
2023-04-26T04:29:38.531Z,7.35
2023-04-26T04:32:05.502Z,7.82
2023-04-26T04:34:37.366Z,7.90
2023-04-26T04:37:04.434Z,8.27
2023-04-26T04:39:31.358Z,10.05
2023-04-26T04:41:58.417Z,14.20
2023-04-26T04:44:27.108Z,15.10
2023-04-26T04:46:53.937Z,12.05
2023-04-26T04:49:20.966Z,9.90
2023-04-26T04:51:48.047Z,9.63
2023-04-26T04:54:16.974Z,8.20
2023-04-26T04:56:44.324Z,7.70
2023-04-26T04:59:11.797Z,6.78
2023-04-26T05:01:38.800Z,6.65
2023-04-26T05:04:07.012Z,6.68
2023-04-26T05:06:33.927Z,5.63
2023-04-26T05:09:01.697Z,5.65
2023-04-26T05:11:28.547Z,5.45
2023-04-26T05:13:55.614Z,5.70
2023-04-26T05:16:22.687Z,5.82
2023-04-26T05:18:49.436Z,6.03
2023-04-26T05:21:16.671Z,6.88
2023-04-26T05:23:43.350Z,8.88
2023-04-26T05:26:16.033Z,10.15
2023-04-26T05:28:43.122Z,11.98
2023-04-26T05:31:11.595Z,12.10
2023-04-26T05:33:38.554Z,11.10
2023-04-26T05:36:05.868Z,8.85
2023-04-26T05:38:32.530Z,8.27
2023-04-26T05:40:59.209Z,6.10
2023-04-26T05:43:26.450Z,5.85
2023-04-26T05:45:54.372Z,6.30
2023-04-26T05:48:22.349Z,5.60
2023-04-26T05:50:50.070Z,5.78
2023-04-26T05:53:17.288Z,5.50
2023-04-26T05:55:44.176Z,6.28
2023-04-26T05:58:11.437Z,5.82
2023-04-26T06:00:41.686Z,5.32
2023-04-26T06:03:08.800Z,5.60
2023-04-26T06:05:38.404Z,5.68
2023-04-26T06:08:05.455Z,6.28
2023-04-26T06:10:32.098Z,6.45
2023-04-26T06:12:58.744Z,6.40
2023-04-26T06:15:25.552Z,5.55
2023-04-26T06:17:52.210Z,6.10
2023-04-26T06:20:18.876Z,5.63
2023-04-26T06:22:45.708Z,5.25
2023-04-26T06:25:12.598Z,5.20
2023-04-26T06:27:39.309Z,5.10
2023-04-26T06:30:07.864Z,5.25
2023-04-26T06:32:34.734Z,5.87
2023-04-26T06:35:01.805Z,4.65
2023-04-26T06:37:28.442Z,5.18
2023-04-26T06:39:55.219Z,5.32
2023-04-26T06:42:22.455Z,5.45
2023-04-26T06:44:49.142Z,4.88
2023-04-26T06:47:15.694Z,4.72
2023-04-26T06:49:42.466Z,3.78
2023-04-26T06:52:09.656Z,3.90
2023-04-26T06:54:45.993Z,4.80
2023-04-26T06:57:20.641Z,3.55
2023-04-26T06:59:47.327Z,3.83
2023-04-26T07:02:15.772Z,4.20
2023-04-26T07:04:43.057Z,3.83
2023-04-26T07:07:11.788Z,3.85
2023-04-26T07:09:39.728Z,3.30
2023-04-26T07:12:06.869Z,4.03
2023-04-26T07:14:37.147Z,3.72
2023-04-26T07:17:05.262Z,3.38
2023-04-26T07:19:32.213Z,3.78
2023-04-26T07:21:58.915Z,3.58
2023-04-26T07:24:25.918Z,3.10
2023-04-26T07:26:52.598Z,3.92
2023-04-26T07:29:19.487Z,3.28
2023-04-26T07:31:46.451Z,3.40
2023-04-26T07:34:13.262Z,3.50
2023-04-26T07:36:39.901Z,3.13
2023-04-26T07:39:06.905Z,3.35
2023-04-26T07:41:33.594Z,3.08
2023-04-26T07:44:00.253Z,2.75
2023-04-26T07:46:27.182Z,2.78
2023-04-26T07:48:53.984Z,3.00
2023-04-26T07:51:21.079Z,2.45
2023-04-26T07:53:48.216Z,2.72
2023-04-26T07:56:15.518Z,2.78
2023-04-26T07:58:42.194Z,2.60
2023-04-26T08:01:09.780Z,2.75
2023-04-26T08:03:36.521Z,2.40
2023-04-26T08:06:03.922Z,2.30
2023-04-26T08:08:32.262Z,2.90
2023-04-26T08:10:59.051Z,3.53
2023-04-26T08:13:27.901Z,2.70
2023-04-26T08:15:56.143Z,2.60
2023-04-26T08:18:22.742Z,2.20
2023-04-26T08:20:49.386Z,2.22
2023-04-26T08:23:16.138Z,2.70
2023-04-26T08:25:42.781Z,2.40
2023-04-26T08:28:09.338Z,2.20
2023-04-26T08:30:36.264Z,2.10
2023-04-26T08:33:03.289Z,2.10
2023-04-26T08:35:30.005Z,2.30
2023-04-26T08:37:56.941Z,2.10
2023-04-26T08:40:25.528Z,2.00
2023-04-26T08:42:53.946Z,2.20
2023-04-26T08:45:21.726Z,2.28
2023-04-26T08:47:56.324Z,1.90
2023-04-26T08:50:24.103Z,1.83
2023-04-26T08:52:52.361Z,3.08
2023-04-26T08:55:20.386Z,1.60
2023-04-26T08:57:48.675Z,1.98
2023-04-26T09:00:17.135Z,2.00
2023-04-26T09:02:52.971Z,2.38
2023-04-26T09:05:24.391Z,1.63
2023-04-26T09:07:55.547Z,2.10
2023-04-26T09:10:22.445Z,2.70
2023-04-26T09:12:56.630Z,2.05
2023-04-26T09:15:25.160Z,1.70
2023-04-26T09:17:52.546Z,1.77
2023-04-26T09:20:30.705Z,2.13
2023-04-26T09:23:03.638Z,2.10
2023-04-26T09:25:31.862Z,1.45
2023-04-26T09:27:59.942Z,1.88
2023-04-26T09:30:28.294Z,1.88
2023-04-26T09:33:06.725Z,2.33
2023-04-26T09:35:37.470Z,2.30
2023-04-26T09:38:12.583Z,2.67
2023-04-26T09:40:46.210Z,2.90
2023-04-26T09:43:21.146Z,2.13
2023-04-26T09:45:57.002Z,2.53
2023-04-26T09:48:30.869Z,1.73
2023-04-26T09:51:03.683Z,2.05
2023-04-26T09:53:37.277Z,2.13
2023-04-26T09:56:13.663Z,2.30
2023-04-26T09:59:01.359Z,2.60
2023-04-26T10:01:30.059Z,2.28
2023-04-26T10:03:58.050Z,1.90
2023-04-26T10:06:25.306Z,2.53
2023-04-26T10:11:18.971Z,2.10
2023-04-26T10:13:45.730Z,2.47
2023-04-26T10:16:12.497Z,2.95
2023-04-26T10:18:39.447Z,2.92
2023-04-26T10:21:19.057Z,2.10
2023-04-26T10:23:47.296Z,1.90
2023-04-26T10:26:52.968Z,2.58
2023-04-26T10:29:24.329Z,2.10
2023-04-26T10:32:09.766Z,1.88
2023-04-26T10:34:37.823Z,1.95
2023-04-26T10:37:14.228Z,1.73
2023-04-26T10:39:45.918Z,1.60
2023-04-26T10:42:26.798Z,1.65
2023-04-26T10:45:00.209Z,1.40
2023-04-26T10:47:36.458Z,1.90
2023-04-26T10:50:10.669Z,2.10
2023-04-26T10:52:58.621Z,1.85
2023-04-26T10:55:57.752Z,1.40
2023-04-26T10:58:28.951Z,1.90
2023-04-26T11:01:04.349Z,2.03
2023-04-26T11:03:31.532Z,1.45
2023-04-26T11:05:58.873Z,2.30
2023-04-26T11:08:26.944Z,1.85
2023-04-26T11:11:02.638Z,2.10
2023-04-26T11:13:47.976Z,1.60
2023-04-26T11:16:16.416Z,1.75
2023-04-26T11:18:47.980Z,1.77
2023-04-26T11:21:18.209Z,1.50
2023-04-26T11:23:53.899Z,1.60
2023-04-26T11:26:20.543Z,1.63
2023-04-26T11:28:49.400Z,1.80
2023-04-26T11:31:19.067Z,1.90
2023-04-26T11:33:46.807Z,1.70
2023-04-26T11:36:15.240Z,1.75
2023-04-26T11:38:42.005Z,2.00
2023-04-26T11:41:08.747Z,1.90
2023-04-26T11:43:36.834Z,1.90
2023-04-26T11:46:05.198Z,1.95
2023-04-26T11:48:34.416Z,1.50
2023-04-26T11:51:03.939Z,2.22
2023-04-26T11:53:41.015Z,2.00
2023-04-26T11:56:17.302Z,2.17
2023-04-26T11:58:47.785Z,2.13
2023-04-26T12:01:24.305Z,1.58
2023-04-26T12:04:00.852Z,1.77
2023-04-26T12:06:33.913Z,1.80
2023-04-26T12:09:05.510Z,2.15
2023-04-26T12:11:32.270Z,2.25
2023-04-26T12:13:59.682Z,2.30
2023-04-26T12:16:27.241Z,1.95
2023-04-26T12:18:56.825Z,2.10
2023-04-26T12:23:57.509Z,2.10
2023-04-26T12:26:44.862Z,2.15
2023-04-26T12:29:11.702Z,1.80
2023-04-26T12:31:38.537Z,1.80
2023-04-26T12:34:05.423Z,1.88
2023-04-26T12:36:32.043Z,2.38
2023-04-26T12:38:58.688Z,2.03
2023-04-26T12:41:25.336Z,2.10
2023-04-26T12:43:51.947Z,1.80
2023-04-26T12:46:18.612Z,1.98
2023-04-26T12:48:45.328Z,2.13
2023-04-26T12:51:11.926Z,1.95
2023-04-26T12:53:38.476Z,1.90
2023-04-26T12:56:05.531Z,1.80
2023-04-26T12:58:32.298Z,1.80
2023-04-26T13:00:59.014Z,2.00
2023-04-26T13:03:25.759Z,1.63
2023-04-26T13:05:52.692Z,1.85
2023-04-26T13:08:19.433Z,1.90
2023-04-26T13:10:46.121Z,1.60
2023-04-26T13:13:13.135Z,1.95
2023-04-26T13:15:40.016Z,1.80
2023-04-26T13:18:06.718Z,2.00
2023-04-26T13:20:33.388Z,1.90
2023-04-26T13:23:00.034Z,2.13
2023-04-26T13:25:27.127Z,2.08
2023-04-26T13:27:55.500Z,1.77
2023-04-26T13:30:22.144Z,1.70
2023-04-26T13:32:49.601Z,1.67
2023-04-26T13:35:16.299Z,1.90
2023-04-26T13:37:42.904Z,1.90
2023-04-26T13:40:11.347Z,1.48
2023-04-26T13:42:38.753Z,1.70
2023-04-26T13:45:16.992Z,1.70
2023-04-26T13:50:11.328Z,2.42
2023-04-26T13:52:38.035Z,1.70
2023-04-26T13:55:04.948Z,2.00
2023-04-26T13:57:31.915Z,1.95
2023-04-26T13:59:58.493Z,1.85
2023-04-26T14:02:25.288Z,2.20
2023-04-26T14:04:52.170Z,1.85
2023-04-26T14:07:18.943Z,1.92
2023-04-26T14:09:45.648Z,2.00
2023-04-26T14:12:12.290Z,1.50
2023-04-26T14:14:38.924Z,1.58
2023-04-26T14:17:05.639Z,1.80
2023-04-26T14:19:32.243Z,1.92
2023-04-26T14:21:58.917Z,1.80
2023-04-26T14:24:25.542Z,1.38
2023-04-26T14:26:52.206Z,1.95
2023-04-26T14:29:18.831Z,1.80
2023-04-26T14:31:46.065Z,1.70
2023-04-26T14:34:13.427Z,2.08
2023-04-26T14:36:40.132Z,1.70
2023-04-26T14:39:07.463Z,1.65
2023-04-26T14:41:35.368Z,2.30
2023-04-26T14:44:01.974Z,2.10
2023-04-26T14:46:28.756Z,1.60
2023-04-26T14:48:55.837Z,2.50
2023-04-26T14:51:22.471Z,2.00
2023-04-26T14:53:49.054Z,1.50
2023-04-26T14:56:15.683Z,2.00
2023-04-26T14:58:42.322Z,1.70
2023-04-26T15:01:09.371Z,2.05
2023-04-26T15:03:36.183Z,1.90
2023-04-26T15:06:03.095Z,1.85
2023-04-26T15:08:30.172Z,2.00
2023-04-26T15:10:56.769Z,2.25
2023-04-26T15:13:23.447Z,2.00
2023-04-26T15:15:50.049Z,2.45
2023-04-26T15:18:16.811Z,2.70
2023-04-26T15:20:43.697Z,2.05
2023-04-26T15:23:10.783Z,2.00
2023-04-26T15:25:37.478Z,2.22
2023-04-26T15:28:04.592Z,2.50
2023-04-26T15:30:31.409Z,2.10
2023-04-26T15:32:58.130Z,1.98
2023-04-26T15:35:25.169Z,2.20
2023-04-26T15:37:53.924Z,2.05
2023-04-26T15:40:21.716Z,2.08
2023-04-26T15:42:49.276Z,2.20
2023-04-26T15:45:15.975Z,1.83
2023-04-26T15:47:42.723Z,1.88
2023-04-26T15:50:09.828Z,2.33
2023-04-26T15:52:39.288Z,1.98
2023-04-26T15:55:07.335Z,2.05
2023-04-26T15:57:34.817Z,2.03
2023-04-26T16:00:02.106Z,2.22
2023-04-26T16:02:28.989Z,2.60
2023-04-26T16:04:56.336Z,2.17
2023-04-26T16:07:23.645Z,1.88
2023-04-26T16:09:50.438Z,2.67
2023-04-26T16:12:17.133Z,2.45
2023-04-26T16:14:43.744Z,3.45
2023-04-26T16:17:10.350Z,2.30
2023-04-26T16:19:37.414Z,1.95
2023-04-26T16:22:04.304Z,2.00
2023-04-26T16:24:31.145Z,2.08
2023-04-26T16:26:58.036Z,2.15
2023-04-26T16:29:25.331Z,1.85
2023-04-26T16:31:52.913Z,2.20
2023-04-26T16:34:20.032Z,2.30
2023-04-26T16:36:46.827Z,2.15
2023-04-26T16:39:15.749Z,2.10
2023-04-26T16:41:42.612Z,1.90
2023-04-26T16:44:09.249Z,1.98
2023-04-26T16:46:35.970Z,1.90
2023-04-26T16:49:04.419Z,2.25
2023-04-26T16:51:32.039Z,2.10
2023-04-26T16:53:58.718Z,2.08
2023-04-26T16:56:25.379Z,2.22
2023-04-26T16:58:52.510Z,2.60
2023-04-26T17:01:19.193Z,2.85
2023-04-26T17:03:46.683Z,2.30
2023-04-26T17:06:13.437Z,2.10
2023-04-26T17:08:40.187Z,2.00
2023-04-26T17:11:07.876Z,2.13
2023-04-26T17:13:34.592Z,1.98
2023-04-26T17:16:01.732Z,1.95
2023-04-26T17:18:28.470Z,2.00
2023-04-26T17:20:56.386Z,2.00
2023-04-26T17:23:23.294Z,2.45
2023-04-26T17:25:50.535Z,2.45
2023-04-26T17:28:17.298Z,2.58
2023-04-26T17:30:44.105Z,2.25
2023-04-26T17:33:10.927Z,2.13
2023-04-26T17:35:37.638Z,2.50
2023-04-26T17:38:04.278Z,2.10
2023-04-26T17:40:31.011Z,2.10
2023-04-26T17:42:57.629Z,2.40
2023-04-26T17:45:24.488Z,2.30
2023-04-26T17:47:51.398Z,2.40
2023-04-26T17:50:18.380Z,1.98
2023-04-26T17:52:45.097Z,2.33
2023-04-26T17:55:11.773Z,2.70
2023-04-26T17:57:38.516Z,2.40
2023-04-26T18:00:09.936Z,2.17
2023-04-26T18:02:37.487Z,2.08
2023-04-26T18:05:06.073Z,2.00
2023-04-26T18:07:32.735Z,1.70
2023-04-26T18:09:59.367Z,1.70
2023-04-26T18:12:26.104Z,1.75
2023-04-26T18:14:52.807Z,2.17
2023-04-26T18:17:19.698Z,2.15
2023-04-26T18:19:46.496Z,1.58
2023-04-26T18:22:13.098Z,1.85
2023-04-26T18:24:39.708Z,2.22
2023-04-26T18:27:06.620Z,2.13
2023-04-26T18:29:33.336Z,1.90
2023-04-26T18:32:00.012Z,1.75
2023-04-26T18:34:26.988Z,2.45
2023-04-26T18:36:53.680Z,2.85
2023-04-26T18:39:20.359Z,3.40
2023-04-26T18:41:47.030Z,6.30
2023-04-26T18:44:14.437Z,7.03
2023-04-26T18:46:42.878Z,5.65
2023-04-26T18:49:10.154Z,5.30
2023-04-26T18:51:36.900Z,5.75
2023-04-26T18:54:03.825Z,4.82
2023-04-26T18:56:31.595Z,5.50
2023-04-26T18:58:58.569Z,4.60
2023-04-26T19:01:25.352Z,3.30
2023-04-26T19:03:52.158Z,2.28
2023-04-26T19:06:18.989Z,2.08
2023-04-26T19:08:46.079Z,3.67
2023-04-26T19:11:13.622Z,4.07
2023-04-26T19:13:41.449Z,4.07
2023-04-26T19:16:15.241Z,3.20
2023-04-26T19:18:42.004Z,3.10
2023-04-26T19:21:09.378Z,2.83
2023-04-26T19:23:36.950Z,2.42
2023-04-26T19:26:08.205Z,2.38
2023-04-26T19:28:35.995Z,2.72
2023-04-26T19:31:02.717Z,2.70
2023-04-26T19:33:30.015Z,2.50
2023-04-26T19:35:56.810Z,2.70
2023-04-26T19:38:24.410Z,2.88
2023-04-26T19:40:51.848Z,2.90
2023-04-26T19:43:18.728Z,3.30
2023-04-26T19:45:46.438Z,2.88
2023-04-26T19:48:13.389Z,2.60
2023-04-26T19:50:43.953Z,2.60
2023-04-26T19:53:13.207Z,2.63
2023-04-26T19:55:41.324Z,3.13
2023-04-26T19:58:08.829Z,4.28
2023-04-26T20:00:36.180Z,6.43
2023-04-26T20:03:03.163Z,4.40
2023-04-26T20:05:30.091Z,4.32
2023-04-26T20:07:57.554Z,4.30
2023-04-26T20:10:24.291Z,5.53
2023-04-26T20:12:51.122Z,5.20
2023-04-26T20:15:18.128Z,6.25
2023-04-26T20:17:44.853Z,5.38
2023-04-26T20:20:12.724Z,4.70
2023-04-26T20:22:40.291Z,4.93
2023-04-26T20:25:07.360Z,4.47
2023-04-26T20:27:34.371Z,4.10
2023-04-26T20:30:01.134Z,4.10
2023-04-26T20:32:27.984Z,5.10
2023-04-26T20:34:54.657Z,3.92
2023-04-26T20:37:22.070Z,4.63
2023-04-26T20:39:49.086Z,4.13
2023-04-26T20:42:16.207Z,3.58
2023-04-26T20:44:43.201Z,4.35
2023-04-26T20:47:09.899Z,4.60
2023-04-26T20:49:36.717Z,4.00
2023-04-26T20:52:03.546Z,4.32
2023-04-26T20:54:30.431Z,5.25
2023-04-26T20:56:57.259Z,6.05
2023-04-26T20:59:25.179Z,6.25
2023-04-26T21:01:53.735Z,5.45
2023-04-26T21:04:21.023Z,6.57
2023-04-26T21:06:47.982Z,5.68
2023-04-26T21:09:14.685Z,5.63
2023-04-26T21:11:41.559Z,5.63
2023-04-26T21:14:09.346Z,6.22
2023-04-26T21:16:36.205Z,5.65
2023-04-26T21:19:03.634Z,5.80
2023-04-26T21:21:30.826Z,5.80
2023-04-26T21:23:57.501Z,6.10
2023-04-26T21:26:24.415Z,5.70
2023-04-26T21:28:51.042Z,5.28
2023-04-26T21:31:17.878Z,5.45
2023-04-26T21:33:44.532Z,5.60
2023-04-26T21:36:11.401Z,6.05
2023-04-26T21:38:38.047Z,6.57
2023-04-26T21:41:04.865Z,6.60
2023-04-26T21:43:31.589Z,6.35
2023-04-26T21:45:58.574Z,6.10
2023-04-26T21:48:26.509Z,5.72
2023-04-26T21:50:53.638Z,6.10
2023-04-26T21:53:20.353Z,6.22
2023-04-26T21:55:52.285Z,5.88
2023-04-26T21:58:19.791Z,6.13
2023-04-26T22:00:46.871Z,5.75
2023-04-26T22:03:14.318Z,5.85
2023-04-26T22:05:41.330Z,5.50
2023-04-26T22:08:07.948Z,6.30
2023-04-26T22:10:35.337Z,5.82
2023-04-26T22:13:01.915Z,6.25
2023-04-26T22:15:28.924Z,6.05
2023-04-26T22:17:55.665Z,5.63
2023-04-26T22:20:22.713Z,5.05
2023-04-26T22:22:49.380Z,5.25
2023-04-26T22:25:16.236Z,6.05
2023-04-26T22:27:42.856Z,6.07
2023-04-26T22:30:23.923Z,6.60
2023-04-26T22:32:52.837Z,7.00
2023-04-26T22:35:27.742Z,6.68
2023-04-26T22:37:55.092Z,6.22
2023-04-26T22:40:21.760Z,5.40
2023-04-26T22:42:48.452Z,5.35
2023-04-26T22:45:15.194Z,5.30
2023-04-26T22:47:42.140Z,6.40
2023-04-26T22:50:09.178Z,6.45
2023-04-26T22:52:36.350Z,6.10
2023-04-26T22:55:03.149Z,5.55
2023-04-26T22:57:31.070Z,6.55
2023-04-26T22:59:57.932Z,7.60
2023-04-26T23:02:24.646Z,6.78
2023-04-26T23:04:51.525Z,6.03
2023-04-26T23:07:18.254Z,6.30
2023-04-26T23:09:45.121Z,7.65
2023-04-26T23:12:11.886Z,10.68
2023-04-26T23:14:38.552Z,13.27
2023-04-26T23:17:05.744Z,9.10
2023-04-26T23:19:33.217Z,8.77
2023-04-26T23:22:00.243Z,7.68
2023-04-26T23:24:27.052Z,8.18
2023-04-26T23:26:54.055Z,7.50
2023-04-26T23:29:20.767Z,7.82
2023-04-26T23:31:47.532Z,7.35
2023-04-26T23:34:14.293Z,6.45
2023-04-26T23:36:41.283Z,7.15
2023-04-26T23:39:09.317Z,7.38
2023-04-26T23:41:36.075Z,7.53
2023-04-26T23:44:02.793Z,7.05
2023-04-26T23:46:29.628Z,6.50
2023-04-26T23:48:56.334Z,6.90
2023-04-26T23:51:23.012Z,6.85
2023-04-26T23:53:49.658Z,6.60
2023-04-26T23:56:16.372Z,6.72
2023-04-26T23:58:43.000Z,5.93
